sensor_id;sensor_type;location;lat;lon;timestamp;P1;durP1;ratioP1;P2;durP2;ratioP2
16063;SDS011;8136;53.172;8.256;2023-04-24T00:01:21;4.23;;;3.20;;
16063;SDS011;8136;53.172;8.256;2023-04-24T00:03:48;4.33;;;3.33;;
16063;SDS011;8136;53.172;8.256;2023-04-24T00:06:15;4.60;;;3.50;;
16063;SDS011;8136;53.172;8.256;2023-04-24T00:08:43;3.00;;;2.80;;
16063;SDS011;8136;53.172;8.256;2023-04-24T00:11:10;4.50;;;2.90;;
16063;SDS011;8136;53.172;8.256;2023-04-24T00:13:37;3.67;;;3.37;;
16063;SDS011;8136;53.172;8.256;2023-04-24T00:16:06;3.80;;;3.20;;
16063;SDS011;8136;53.172;8.256;2023-04-24T00:18:33;3.70;;;3.40;;
16063;SDS011;8136;53.172;8.256;2023-04-24T00:20:59;3.93;;;3.37;;
16063;SDS011;8136;53.172;8.256;2023-04-24T00:23:26;3.20;;;2.80;;
16063;SDS011;8136;53.172;8.256;2023-04-24T00:25:53;3.47;;;3.17;;
16063;SDS011;8136;53.172;8.256;2023-04-24T00:28:20;3.90;;;3.50;;
16063;SDS011;8136;53.172;8.256;2023-04-24T00:30:46;3.20;;;2.90;;
16063;SDS011;8136;53.172;8.256;2023-04-24T00:33:15;2.97;;;2.77;;
16063;SDS011;8136;53.172;8.256;2023-04-24T00:35:41;3.77;;;2.27;;
16063;SDS011;8136;53.172;8.256;2023-04-24T00:38:08;2.10;;;2.00;;
16063;SDS011;8136;53.172;8.256;2023-04-24T00:40:35;2.17;;;1.63;;
16063;SDS011;8136;53.172;8.256;2023-04-24T00:43:02;1.20;;;1.10;;
16063;SDS011;8136;53.172;8.256;2023-04-24T00:45:29;1.30;;;1.20;;
16063;SDS011;8136;53.172;8.256;2023-04-24T00:47:57;1.90;;;1.60;;
16063;SDS011;8136;53.172;8.256;2023-04-24T00:50:25;2.00;;;1.80;;
16063;SDS011;8136;53.172;8.256;2023-04-24T00:52:52;2.30;;;2.00;;
16063;SDS011;8136;53.172;8.256;2023-04-24T00:55:22;1.43;;;1.33;;
16063;SDS011;8136;53.172;8.256;2023-04-24T00:57:50;2.87;;;1.37;;
16063;SDS011;8136;53.172;8.256;2023-04-24T01:00:17;1.67;;;1.57;;
16063;SDS011;8136;53.172;8.256;2023-04-24T01:02:44;1.40;;;1.30;;
16063;SDS011;8136;53.172;8.256;2023-04-24T01:05:11;1.77;;;1.67;;
16063;SDS011;8136;53.172;8.256;2023-04-24T01:07:42;1.70;;;1.60;;
16063;SDS011;8136;53.172;8.256;2023-04-24T01:10:12;1.80;;;1.70;;
16063;SDS011;8136;53.172;8.256;2023-04-24T01:12:40;1.70;;;1.60;;
16063;SDS011;8136;53.172;8.256;2023-04-24T01:15:07;1.63;;;1.53;;
16063;SDS011;8136;53.172;8.256;2023-04-24T01:17:35;2.00;;;1.90;;
16063;SDS011;8136;53.172;8.256;2023-04-24T01:20:03;2.60;;;1.87;;
16063;SDS011;8136;53.172;8.256;2023-04-24T01:22:33;2.20;;;2.10;;
16063;SDS011;8136;53.172;8.256;2023-04-24T01:25:00;1.70;;;1.60;;
16063;SDS011;8136;53.172;8.256;2023-04-24T01:27:27;2.03;;;1.67;;
16063;SDS011;8136;53.172;8.256;2023-04-24T01:29:54;2.30;;;1.80;;
16063;SDS011;8136;53.172;8.256;2023-04-24T01:32:21;2.00;;;1.90;;
16063;SDS011;8136;53.172;8.256;2023-04-24T01:34:56;2.70;;;2.00;;
16063;SDS011;8136;53.172;8.256;2023-04-24T01:37:48;2.07;;;1.93;;
16063;SDS011;8136;53.172;8.256;2023-04-24T01:40:28;1.90;;;1.80;;
16063;SDS011;8136;53.172;8.256;2023-04-24T01:43:02;2.37;;;2.17;;
16063;SDS011;8136;53.172;8.256;2023-04-24T01:45:47;2.40;;;2.20;;
16063;SDS011;8136;53.172;8.256;2023-04-24T10:53:34;5.67;;;3.17;;
16063;SDS011;8136;53.172;8.256;2023-04-24T10:56:02;4.80;;;3.30;;
16063;SDS011;8136;53.172;8.256;2023-04-24T10:58:37;4.57;;;3.10;;
16063;SDS011;8136;53.172;8.256;2023-04-24T11:01:05;5.40;;;3.00;;
16063;SDS011;8136;53.172;8.256;2023-04-24T11:03:33;3.30;;;3.00;;
16063;SDS011;8136;53.172;8.256;2023-04-24T11:08:30;3.80;;;2.70;;
16063;SDS011;8136;53.172;8.256;2023-04-24T11:11:00;3.00;;;2.70;;
16063;SDS011;8136;53.172;8.256;2023-04-24T11:16:33;3.13;;;2.83;;
16063;SDS011;8136;53.172;8.256;2023-04-24T11:19:03;3.20;;;2.90;;
16063;SDS011;8136;53.172;8.256;2023-04-24T11:21:31;3.20;;;2.70;;
16063;SDS011;8136;53.172;8.256;2023-04-24T11:26:55;3.50;;;2.83;;
16063;SDS011;8136;53.172;8.256;2023-04-24T11:29:28;3.73;;;3.00;;
16063;SDS011;8136;53.172;8.256;2023-04-24T11:32:13;5.63;;;3.13;;
16063;SDS011;8136;53.172;8.256;2023-04-24T11:34:44;4.03;;;3.10;;
16063;SDS011;8136;53.172;8.256;2023-04-24T11:37:12;3.37;;;3.00;;
16063;SDS011;8136;53.172;8.256;2023-04-24T11:39:40;3.30;;;2.90;;
16063;SDS011;8136;53.172;8.256;2023-04-24T11:42:08;3.37;;;2.90;;
16063;SDS011;8136;53.172;8.256;2023-04-24T11:44:35;3.37;;;2.87;;
16063;SDS011;8136;53.172;8.256;2023-04-24T11:47:03;3.90;;;3.50;;
16063;SDS011;8136;53.172;8.256;2023-04-24T11:49:30;3.53;;;2.83;;
16063;SDS011;8136;53.172;8.256;2023-04-24T11:51:57;3.10;;;2.60;;
16063;SDS011;8136;53.172;8.256;2023-04-24T11:54:25;3.27;;;2.20;;
16063;SDS011;8136;53.172;8.256;2023-04-24T11:56:52;2.57;;;2.37;;
16063;SDS011;8136;53.172;8.256;2023-04-24T11:59:20;8.13;;;2.73;;
16063;SDS011;8136;53.172;8.256;2023-04-24T12:01:47;2.90;;;2.67;;
16063;SDS011;8136;53.172;8.256;2023-04-24T12:04:15;3.77;;;2.80;;
16063;SDS011;8136;53.172;8.256;2023-04-24T12:09:25;3.67;;;2.80;;
16063;SDS011;8136;53.172;8.256;2023-04-24T12:11:52;3.70;;;3.00;;
16063;SDS011;8136;53.172;8.256;2023-04-24T12:14:21;5.70;;;4.50;;
16063;SDS011;8136;53.172;8.256;2023-04-24T12:16:48;7.93;;;5.97;;
16063;SDS011;8136;53.172;8.256;2023-04-24T12:19:17;10.10;;;6.60;;
16063;SDS011;8136;53.172;8.256;2023-04-24T12:21:45;11.03;;;7.40;;
16063;SDS011;8136;53.172;8.256;2023-04-24T12:24:25;10.07;;;7.93;;
16063;SDS011;8136;53.172;8.256;2023-04-24T12:26:52;10.17;;;8.43;;
16063;SDS011;8136;53.172;8.256;2023-04-24T12:29:21;13.47;;;9.27;;
16063;SDS011;8136;53.172;8.256;2023-04-24T12:31:48;12.60;;;8.90;;
16063;SDS011;8136;53.172;8.256;2023-04-24T12:34:18;11.07;;;9.20;;
16063;SDS011;8136;53.172;8.256;2023-04-24T12:36:46;11.63;;;9.10;;
16063;SDS011;8136;53.172;8.256;2023-04-24T12:39:16;12.50;;;8.90;;
16063;SDS011;8136;53.172;8.256;2023-04-24T12:41:50;11.20;;;8.90;;
16063;SDS011;8136;53.172;8.256;2023-04-24T12:44:29;13.43;;;8.33;;
16063;SDS011;8136;53.172;8.256;2023-04-24T12:46:57;13.83;;;8.67;;
16063;SDS011;8136;53.172;8.256;2023-04-24T12:49:24;11.17;;;7.63;;
16063;SDS011;8136;53.172;8.256;2023-04-24T12:51:51;8.67;;;7.33;;
16063;SDS011;8136;53.172;8.256;2023-04-24T12:54:17;10.40;;;6.30;;
16063;SDS011;8136;53.172;8.256;2023-04-24T12:56:44;7.67;;;5.73;;
16063;SDS011;8136;53.172;8.256;2023-04-24T12:59:11;11.00;;;6.10;;
16063;SDS011;8136;53.172;8.256;2023-04-24T13:01:40;7.73;;;5.97;;
16063;SDS011;8136;53.172;8.256;2023-04-24T13:04:07;7.57;;;5.50;;
16063;SDS011;8136;53.172;8.256;2023-04-24T13:06:34;7.70;;;6.00;;
16063;SDS011;8136;53.172;8.256;2023-04-24T13:09:00;10.23;;;6.00;;
16063;SDS011;8136;53.172;8.256;2023-04-24T13:11:28;10.57;;;6.07;;
16063;SDS011;8136;53.172;8.256;2023-04-24T13:13:55;7.37;;;5.60;;
16063;SDS011;8136;53.172;8.256;2023-04-24T13:16:22;8.10;;;6.50;;
16063;SDS011;8136;53.172;8.256;2023-04-24T13:18:50;10.90;;;6.63;;
16063;SDS011;8136;53.172;8.256;2023-04-24T13:21:16;12.40;;;6.73;;
16063;SDS011;8136;53.172;8.256;2023-04-24T13:23:43;10.83;;;6.80;;
16063;SDS011;8136;53.172;8.256;2023-04-24T13:26:10;11.00;;;7.07;;
16063;SDS011;8136;53.172;8.256;2023-04-24T13:28:37;9.13;;;6.77;;
16063;SDS011;8136;53.172;8.256;2023-04-24T13:31:04;8.00;;;5.87;;
16063;SDS011;8136;53.172;8.256;2023-04-24T13:33:31;8.80;;;5.53;;
16063;SDS011;8136;53.172;8.256;2023-04-24T13:35:59;7.33;;;4.90;;
16063;SDS011;8136;53.172;8.256;2023-04-24T13:38:26;12.03;;;5.63;;
16063;SDS011;8136;53.172;8.256;2023-04-24T13:40:52;6.27;;;4.50;;
16063;SDS011;8136;53.172;8.256;2023-04-24T13:43:19;7.87;;;4.70;;
16063;SDS011;8136;53.172;8.256;2023-04-24T13:45:46;7.57;;;3.97;;
16063;SDS011;8136;53.172;8.256;2023-04-24T13:48:13;6.13;;;4.60;;
16063;SDS011;8136;53.172;8.256;2023-04-24T13:50:40;9.93;;;4.03;;
16063;SDS011;8136;53.172;8.256;2023-04-24T13:53:09;7.80;;;4.50;;
16063;SDS011;8136;53.172;8.256;2023-04-24T13:55:35;7.87;;;4.23;;
16063;SDS011;8136;53.172;8.256;2023-04-24T13:58:04;7.70;;;4.03;;
16063;SDS011;8136;53.172;8.256;2023-04-24T14:00:31;5.80;;;4.07;;
16063;SDS011;8136;53.172;8.256;2023-04-24T14:02:58;6.57;;;3.83;;
16063;SDS011;8136;53.172;8.256;2023-04-24T14:05:26;6.27;;;4.30;;
16063;SDS011;8136;53.172;8.256;2023-04-24T14:07:53;9.17;;;4.57;;
16063;SDS011;8136;53.172;8.256;2023-04-24T14:10:21;6.37;;;4.20;;
16063;SDS011;8136;53.172;8.256;2023-04-24T14:12:48;10.13;;;4.43;;
16063;SDS011;8136;53.172;8.256;2023-04-24T14:15:15;7.00;;;4.10;;
16063;SDS011;8136;53.172;8.256;2023-04-24T14:17:42;5.53;;;4.07;;
16063;SDS011;8136;53.172;8.256;2023-04-24T14:20:08;7.80;;;4.33;;
16063;SDS011;8136;53.172;8.256;2023-04-24T14:22:36;7.47;;;4.67;;
16063;SDS011;8136;53.172;8.256;2023-04-24T14:25:03;6.07;;;3.97;;
16063;SDS011;8136;53.172;8.256;2023-04-24T14:27:32;7.47;;;4.00;;
16063;SDS011;8136;53.172;8.256;2023-04-24T14:29:59;12.23;;;4.27;;
16063;SDS011;8136;53.172;8.256;2023-04-24T14:32:26;7.83;;;4.37;;
16063;SDS011;8136;53.172;8.256;2023-04-24T14:34:53;4.83;;;3.20;;
16063;SDS011;8136;53.172;8.256;2023-04-24T14:37:20;6.93;;;3.20;;
16063;SDS011;8136;53.172;8.256;2023-04-24T14:39:47;8.00;;;3.60;;
16063;SDS011;8136;53.172;8.256;2023-04-24T14:42:13;5.73;;;2.57;;
16063;SDS011;8136;53.172;8.256;2023-04-24T14:44:43;8.43;;;2.80;;
16063;SDS011;8136;53.172;8.256;2023-04-24T14:47:09;4.80;;;2.40;;
16063;SDS011;8136;53.172;8.256;2023-04-24T14:49:36;3.63;;;2.17;;
16063;SDS011;8136;53.172;8.256;2023-04-24T14:52:03;6.60;;;2.33;;
16063;SDS011;8136;53.172;8.256;2023-04-24T14:54:30;4.80;;;1.90;;
16063;SDS011;8136;53.172;8.256;2023-04-24T14:56:57;5.30;;;1.90;;
16063;SDS011;8136;53.172;8.256;2023-04-24T14:59:24;8.23;;;2.33;;
16063;SDS011;8136;53.172;8.256;2023-04-24T15:01:52;5.53;;;2.20;;
16063;SDS011;8136;53.172;8.256;2023-04-24T15:04:22;6.40;;;2.27;;
16063;SDS011;8136;53.172;8.256;2023-04-24T15:06:50;6.80;;;2.00;;
16063;SDS011;8136;53.172;8.256;2023-04-24T15:09:18;6.17;;;2.30;;
16063;SDS011;8136;53.172;8.256;2023-04-24T15:11:45;4.90;;;2.13;;
16063;SDS011;8136;53.172;8.256;2023-04-24T15:14:12;6.63;;;2.30;;
16063;SDS011;8136;53.172;8.256;2023-04-24T15:16:38;4.17;;;2.20;;
16063;SDS011;8136;53.172;8.256;2023-04-24T15:19:07;3.80;;;2.07;;
16063;SDS011;8136;53.172;8.256;2023-04-24T15:21:35;8.40;;;2.50;;
16063;SDS011;8136;53.172;8.256;2023-04-24T15:24:02;9.00;;;2.63;;
16063;SDS011;8136;53.172;8.256;2023-04-24T15:26:30;9.03;;;2.60;;
16063;SDS011;8136;53.172;8.256;2023-04-24T15:28:57;7.53;;;2.30;;
16063;SDS011;8136;53.172;8.256;2023-04-24T15:31:23;5.23;;;2.37;;
16063;SDS011;8136;53.172;8.256;2023-04-24T15:33:50;5.57;;;2.37;;
16063;SDS011;8136;53.172;8.256;2023-04-24T15:36:18;5.60;;;2.33;;
16063;SDS011;8136;53.172;8.256;2023-04-24T15:38:46;5.73;;;2.77;;
16063;SDS011;8136;53.172;8.256;2023-04-24T15:41:13;4.83;;;2.50;;
16063;SDS011;8136;53.172;8.256;2023-04-24T15:43:40;2.67;;;1.70;;
16063;SDS011;8136;53.172;8.256;2023-04-24T15:46:07;3.80;;;1.93;;
16063;SDS011;8136;53.172;8.256;2023-04-24T15:48:35;4.37;;;1.80;;
16063;SDS011;8136;53.172;8.256;2023-04-24T15:51:03;3.63;;;2.37;;
16063;SDS011;8136;53.172;8.256;2023-04-24T15:53:32;5.10;;;1.60;;
16063;SDS011;8136;53.172;8.256;2023-04-24T15:55:58;2.10;;;1.70;;
16063;SDS011;8136;53.172;8.256;2023-04-24T15:58:25;2.60;;;1.60;;
16063;SDS011;8136;53.172;8.256;2023-04-24T16:00:52;3.90;;;1.47;;
16063;SDS011;8136;53.172;8.256;2023-04-24T16:03:19;4.43;;;1.60;;
16063;SDS011;8136;53.172;8.256;2023-04-24T16:05:46;4.13;;;1.40;;
16063;SDS011;8136;53.172;8.256;2023-04-24T16:08:13;4.47;;;1.93;;
16063;SDS011;8136;53.172;8.256;2023-04-24T16:10:41;1.87;;;1.43;;
16063;SDS011;8136;53.172;8.256;2023-04-24T16:13:10;8.43;;;1.50;;
16063;SDS011;8136;53.172;8.256;2023-04-24T16:15:37;4.37;;;1.50;;
16063;SDS011;8136;53.172;8.256;2023-04-24T16:18:05;3.53;;;1.60;;
16063;SDS011;8136;53.172;8.256;2023-04-24T16:20:32;3.80;;;1.60;;
16063;SDS011;8136;53.172;8.256;2023-04-24T16:22:58;4.23;;;1.90;;
16063;SDS011;8136;53.172;8.256;2023-04-24T16:25:25;3.67;;;2.10;;
16063;SDS011;8136;53.172;8.256;2023-04-24T16:27:53;5.03;;;1.70;;
16063;SDS011;8136;53.172;8.256;2023-04-24T16:30:21;2.30;;;1.50;;
16063;SDS011;8136;53.172;8.256;2023-04-24T16:32:48;4.70;;;1.80;;
16063;SDS011;8136;53.172;8.256;2023-04-24T16:35:14;4.93;;;2.17;;
16063;SDS011;8136;53.172;8.256;2023-04-24T16:37:41;4.33;;;2.27;;
16063;SDS011;8136;53.172;8.256;2023-04-24T16:40:08;6.07;;;2.30;;
16063;SDS011;8136;53.172;8.256;2023-04-24T16:42:36;4.00;;;1.90;;
16063;SDS011;8136;53.172;8.256;2023-04-24T16:45:05;3.67;;;1.80;;
16063;SDS011;8136;53.172;8.256;2023-04-24T16:47:33;4.87;;;2.07;;
16063;SDS011;8136;53.172;8.256;2023-04-24T16:50:01;8.63;;;1.93;;
16063;SDS011;8136;53.172;8.256;2023-04-24T16:52:27;4.17;;;1.80;;
16063;SDS011;8136;53.172;8.256;2023-04-24T16:54:54;4.30;;;1.80;;
16063;SDS011;8136;53.172;8.256;2023-04-24T16:57:21;2.77;;;1.60;;
16063;SDS011;8136;53.172;8.256;2023-04-24T16:59:48;2.30;;;1.80;;
16063;SDS011;8136;53.172;8.256;2023-04-24T17:02:16;4.13;;;1.90;;
16063;SDS011;8136;53.172;8.256;2023-04-24T17:04:43;4.20;;;1.87;;
16063;SDS011;8136;53.172;8.256;2023-04-24T17:07:09;5.23;;;1.90;;
16063;SDS011;8136;53.172;8.256;2023-04-24T17:09:36;3.13;;;1.67;;
16063;SDS011;8136;53.172;8.256;2023-04-24T17:12:03;3.57;;;1.60;;
16063;SDS011;8136;53.172;8.256;2023-04-24T17:14:31;5.87;;;1.80;;
16063;SDS011;8136;53.172;8.256;2023-04-24T17:16:58;2.73;;;1.70;;
16063;SDS011;8136;53.172;8.256;2023-04-24T17:19:26;4.50;;;2.37;;
16063;SDS011;8136;53.172;8.256;2023-04-24T17:21:53;4.50;;;2.20;;
16063;SDS011;8136;53.172;8.256;2023-04-24T17:24:20;5.00;;;2.30;;
16063;SDS011;8136;53.172;8.256;2023-04-24T17:26:47;4.97;;;1.80;;
16063;SDS011;8136;53.172;8.256;2023-04-24T17:29:14;5.03;;;2.20;;
16063;SDS011;8136;53.172;8.256;2023-04-24T17:31:41;4.00;;;2.87;;
16063;SDS011;8136;53.172;8.256;2023-04-24T17:34:07;4.80;;;2.20;;
16063;SDS011;8136;53.172;8.256;2023-04-24T17:36:36;4.57;;;2.07;;
16063;SDS011;8136;53.172;8.256;2023-04-24T17:39:03;5.63;;;2.40;;
16063;SDS011;8136;53.172;8.256;2023-04-24T17:41:29;6.07;;;2.10;;
16063;SDS011;8136;53.172;8.256;2023-04-24T17:43:56;6.13;;;2.60;;
16063;SDS011;8136;53.172;8.256;2023-04-24T17:46:23;2.77;;;2.07;;
16063;SDS011;8136;53.172;8.256;2023-04-24T17:48:50;3.87;;;2.30;;
16063;SDS011;8136;53.172;8.256;2023-04-24T17:51:17;4.37;;;3.00;;
16063;SDS011;8136;53.172;8.256;2023-04-24T17:53:45;5.50;;;2.17;;
16063;SDS011;8136;53.172;8.256;2023-04-24T17:56:12;4.10;;;2.23;;
16063;SDS011;8136;53.172;8.256;2023-04-24T17:58:39;7.20;;;2.63;;
16063;SDS011;8136;53.172;8.256;2023-04-24T18:01:06;6.67;;;2.50;;
16063;SDS011;8136;53.172;8.256;2023-04-24T18:03:33;6.07;;;2.10;;
16063;SDS011;8136;53.172;8.256;2023-04-24T18:06:00;7.83;;;2.50;;
16063;SDS011;8136;53.172;8.256;2023-04-24T18:08:26;6.73;;;2.23;;
16063;SDS011;8136;53.172;8.256;2023-04-24T18:10:55;6.47;;;2.70;;
16063;SDS011;8136;53.172;8.256;2023-04-24T18:13:22;5.63;;;2.73;;
16063;SDS011;8136;53.172;8.256;2023-04-24T18:15:49;5.17;;;2.20;;
16063;SDS011;8136;53.172;8.256;2023-04-24T18:18:16;6.87;;;3.10;;
16063;SDS011;8136;53.172;8.256;2023-04-24T18:20:43;9.17;;;3.20;;
16063;SDS011;8136;53.172;8.256;2023-04-24T18:23:10;7.43;;;2.83;;
16063;SDS011;8136;53.172;8.256;2023-04-24T18:25:37;8.70;;;2.83;;
16063;SDS011;8136;53.172;8.256;2023-04-24T18:28:05;5.83;;;2.90;;
16063;SDS011;8136;53.172;8.256;2023-04-24T18:30:32;6.50;;;3.50;;
16063;SDS011;8136;53.172;8.256;2023-04-24T18:32:59;8.57;;;3.37;;
16063;SDS011;8136;53.172;8.256;2023-04-24T18:35:26;6.30;;;3.20;;
16063;SDS011;8136;53.172;8.256;2023-04-24T18:37:52;6.30;;;3.03;;
16063;SDS011;8136;53.172;8.256;2023-04-24T18:40:19;9.83;;;3.63;;
16063;SDS011;8136;53.172;8.256;2023-04-24T18:42:46;7.67;;;3.83;;
16063;SDS011;8136;53.172;8.256;2023-04-24T18:45:14;7.67;;;3.60;;
16063;SDS011;8136;53.172;8.256;2023-04-24T18:47:41;9.73;;;3.07;;
16063;SDS011;8136;53.172;8.256;2023-04-24T18:50:08;7.30;;;2.90;;
16063;SDS011;8136;53.172;8.256;2023-04-24T18:52:36;5.67;;;3.07;;
16063;SDS011;8136;53.172;8.256;2023-04-24T18:55:03;5.83;;;3.27;;
16063;SDS011;8136;53.172;8.256;2023-04-24T18:57:30;6.17;;;2.80;;
16063;SDS011;8136;53.172;8.256;2023-04-24T18:59:57;7.60;;;2.93;;
16063;SDS011;8136;53.172;8.256;2023-04-24T19:02:26;4.83;;;2.60;;
16063;SDS011;8136;53.172;8.256;2023-04-24T19:04:52;7.33;;;3.43;;
16063;SDS011;8136;53.172;8.256;2023-04-24T19:07:19;4.37;;;2.70;;
16063;SDS011;8136;53.172;8.256;2023-04-24T19:09:46;6.67;;;3.17;;
16063;SDS011;8136;53.172;8.256;2023-04-24T19:12:13;3.80;;;2.47;;
16063;SDS011;8136;53.172;8.256;2023-04-24T19:14:39;7.50;;;3.77;;
16063;SDS011;8136;53.172;8.256;2023-04-24T19:17:06;6.57;;;3.10;;
16063;SDS011;8136;53.172;8.256;2023-04-24T19:19:35;7.87;;;3.00;;
16063;SDS011;8136;53.172;8.256;2023-04-24T19:22:02;7.20;;;3.27;;
16063;SDS011;8136;53.172;8.256;2023-04-24T19:24:29;7.13;;;3.87;;
16063;SDS011;8136;53.172;8.256;2023-04-24T19:26:57;4.53;;;3.40;;
16063;SDS011;8136;53.172;8.256;2023-04-24T19:29:24;7.23;;;2.93;;
16063;SDS011;8136;53.172;8.256;2023-04-24T19:31:51;6.63;;;3.30;;
16063;SDS011;8136;53.172;8.256;2023-04-24T19:34:18;8.67;;;3.40;;
16063;SDS011;8136;53.172;8.256;2023-04-24T19:36:46;6.47;;;2.97;;
16063;SDS011;8136;53.172;8.256;2023-04-24T19:39:13;6.00;;;3.00;;
16063;SDS011;8136;53.172;8.256;2023-04-24T19:41:40;4.80;;;3.23;;
16063;SDS011;8136;53.172;8.256;2023-04-24T19:44:07;6.03;;;3.10;;
16063;SDS011;8136;53.172;8.256;2023-04-24T19:46:34;6.03;;;2.87;;
16063;SDS011;8136;53.172;8.256;2023-04-24T19:49:01;4.17;;;2.60;;
16063;SDS011;8136;53.172;8.256;2023-04-24T19:51:27;4.90;;;2.50;;
16063;SDS011;8136;53.172;8.256;2023-04-24T19:53:57;3.73;;;2.23;;
16063;SDS011;8136;53.172;8.256;2023-04-24T19:56:24;4.73;;;2.53;;
16063;SDS011;8136;53.172;8.256;2023-04-24T19:58:51;3.93;;;2.20;;
16063;SDS011;8136;53.172;8.256;2023-04-24T20:01:18;5.60;;;2.27;;
16063;SDS011;8136;53.172;8.256;2023-04-24T20:03:44;4.40;;;2.70;;
16063;SDS011;8136;53.172;8.256;2023-04-24T20:06:11;3.77;;;2.50;;
16063;SDS011;8136;53.172;8.256;2023-04-24T20:08:38;3.33;;;2.53;;
16063;SDS011;8136;53.172;8.256;2023-04-24T20:11:08;7.23;;;2.30;;
16063;SDS011;8136;53.172;8.256;2023-04-24T20:13:34;3.80;;;2.40;;
16063;SDS011;8136;53.172;8.256;2023-04-24T20:16:01;4.93;;;2.53;;
16063;SDS011;8136;53.172;8.256;2023-04-24T20:18:28;4.93;;;2.30;;
16063;SDS011;8136;53.172;8.256;2023-04-24T20:20:55;3.57;;;2.30;;
16063;SDS011;8136;53.172;8.256;2023-04-24T20:23:23;5.83;;;2.57;;
16063;SDS011;8136;53.172;8.256;2023-04-24T20:25:50;4.63;;;2.23;;
16063;SDS011;8136;53.172;8.256;2023-04-24T20:28:23;4.07;;;2.60;;
16063;SDS011;8136;53.172;8.256;2023-04-24T20:30:50;5.10;;;2.17;;
16063;SDS011;8136;53.172;8.256;2023-04-24T20:33:17;4.27;;;2.53;;
16063;SDS011;8136;53.172;8.256;2023-04-24T20:35:44;4.30;;;2.30;;
16063;SDS011;8136;53.172;8.256;2023-04-24T20:38:11;3.23;;;2.40;;
16063;SDS011;8136;53.172;8.256;2023-04-24T20:40:38;5.27;;;2.70;;
16063;SDS011;8136;53.172;8.256;2023-04-24T20:43:06;5.77;;;2.33;;
16063;SDS011;8136;53.172;8.256;2023-04-24T20:45:34;2.70;;;2.40;;
16063;SDS011;8136;53.172;8.256;2023-04-24T20:48:00;5.40;;;2.50;;
16063;SDS011;8136;53.172;8.256;2023-04-24T20:50:27;2.97;;;2.70;;
16063;SDS011;8136;53.172;8.256;2023-04-24T20:52:54;3.73;;;2.40;;
16063;SDS011;8136;53.172;8.256;2023-04-24T20:55:21;3.33;;;2.50;;
16063;SDS011;8136;53.172;8.256;2023-04-24T20:57:48;6.00;;;2.70;;
16063;SDS011;8136;53.172;8.256;2023-04-24T21:00:14;5.23;;;3.03;;
16063;SDS011;8136;53.172;8.256;2023-04-24T21:02:43;2.50;;;2.23;;
16063;SDS011;8136;53.172;8.256;2023-04-24T21:05:10;5.33;;;2.70;;
16063;SDS011;8136;53.172;8.256;2023-04-24T21:07:36;6.10;;;2.63;;
16063;SDS011;8136;53.172;8.256;2023-04-24T21:10:03;6.53;;;2.67;;
16063;SDS011;8136;53.172;8.256;2023-04-24T21:12:31;3.67;;;2.70;;
16063;SDS011;8136;53.172;8.256;2023-04-24T21:14:58;3.80;;;2.77;;
16063;SDS011;8136;53.172;8.256;2023-04-24T21:17:25;6.20;;;2.97;;
16063;SDS011;8136;53.172;8.256;2023-04-24T21:19:53;4.87;;;3.20;;
16063;SDS011;8136;53.172;8.256;2023-04-24T21:22:20;2.90;;;2.60;;
16063;SDS011;8136;53.172;8.256;2023-04-24T21:24:47;5.87;;;2.97;;
16063;SDS011;8136;53.172;8.256;2023-04-24T21:27:14;6.83;;;2.97;;
16063;SDS011;8136;53.172;8.256;2023-04-24T21:29:41;5.67;;;3.30;;
16063;SDS011;8136;53.172;8.256;2023-04-24T21:32:08;3.97;;;2.93;;
16063;SDS011;8136;53.172;8.256;2023-04-24T21:34:35;5.13;;;2.93;;
16063;SDS011;8136;53.172;8.256;2023-04-24T21:37:03;7.73;;;3.57;;
16063;SDS011;8136;53.172;8.256;2023-04-24T21:39:30;4.60;;;2.90;;
16063;SDS011;8136;53.172;8.256;2023-04-24T21:41:56;8.23;;;3.43;;
16063;SDS011;8136;53.172;8.256;2023-04-24T21:44:23;5.10;;;2.63;;
16063;SDS011;8136;53.172;8.256;2023-04-24T21:46:51;5.63;;;3.60;;
16063;SDS011;8136;53.172;8.256;2023-04-24T21:49:18;7.50;;;3.40;;
16063;SDS011;8136;53.172;8.256;2023-04-24T21:51:45;5.20;;;3.07;;
16063;SDS011;8136;53.172;8.256;2023-04-24T21:54:13;5.37;;;3.63;;
16063;SDS011;8136;53.172;8.256;2023-04-24T21:56:40;4.17;;;3.20;;
16063;SDS011;8136;53.172;8.256;2023-04-24T21:59:07;4.80;;;3.27;;
16063;SDS011;8136;53.172;8.256;2023-04-24T22:01:35;6.93;;;3.43;;
16063;SDS011;8136;53.172;8.256;2023-04-24T22:04:01;7.67;;;3.40;;
16063;SDS011;8136;53.172;8.256;2023-04-24T22:06:29;10.33;;;3.40;;
16063;SDS011;8136;53.172;8.256;2023-04-24T22:08:56;6.83;;;3.23;;
16063;SDS011;8136;53.172;8.256;2023-04-24T22:11:24;8.13;;;3.60;;
16063;SDS011;8136;53.172;8.256;2023-04-24T22:13:51;6.17;;;3.83;;
16063;SDS011;8136;53.172;8.256;2023-04-24T22:16:18;7.17;;;3.30;;
16063;SDS011;8136;53.172;8.256;2023-04-24T22:18:46;5.70;;;3.40;;
16063;SDS011;8136;53.172;8.256;2023-04-24T22:21:14;5.50;;;3.63;;
16063;SDS011;8136;53.172;8.256;2023-04-24T22:23:41;7.23;;;3.73;;
16063;SDS011;8136;53.172;8.256;2023-04-24T22:26:07;6.30;;;3.10;;
16063;SDS011;8136;53.172;8.256;2023-04-24T22:28:35;5.93;;;3.83;;
16063;SDS011;8136;53.172;8.256;2023-04-24T22:31:02;5.57;;;3.63;;
16063;SDS011;8136;53.172;8.256;2023-04-24T22:33:29;5.60;;;3.47;;
16063;SDS011;8136;53.172;8.256;2023-04-24T22:35:56;11.00;;;3.80;;
16063;SDS011;8136;53.172;8.256;2023-04-24T22:38:23;8.33;;;3.57;;
16063;SDS011;8136;53.172;8.256;2023-04-24T22:40:50;3.97;;;2.97;;
16063;SDS011;8136;53.172;8.256;2023-04-24T22:43:17;8.10;;;3.60;;
16063;SDS011;8136;53.172;8.256;2023-04-24T22:45:45;7.40;;;3.33;;
16063;SDS011;8136;53.172;8.256;2023-04-24T22:48:12;6.77;;;3.67;;
16063;SDS011;8136;53.172;8.256;2023-04-24T22:50:39;9.27;;;4.13;;
16063;SDS011;8136;53.172;8.256;2023-04-24T22:53:06;10.03;;;3.50;;
16063;SDS011;8136;53.172;8.256;2023-04-24T22:55:33;10.47;;;3.33;;
16063;SDS011;8136;53.172;8.256;2023-04-24T22:58:00;6.00;;;2.97;;
16063;SDS011;8136;53.172;8.256;2023-04-24T23:00:27;11.30;;;3.60;;
16063;SDS011;8136;53.172;8.256;2023-04-24T23:02:55;16.67;;;3.90;;
16063;SDS011;8136;53.172;8.256;2023-04-24T23:05:22;10.00;;;2.83;;
16063;SDS011;8136;53.172;8.256;2023-04-24T23:07:49;14.13;;;4.30;;
16063;SDS011;8136;53.172;8.256;2023-04-24T23:10:16;15.20;;;4.33;;
16063;SDS011;8136;53.172;8.256;2023-04-24T23:12:42;12.40;;;3.80;;
16063;SDS011;8136;53.172;8.256;2023-04-24T23:15:09;13.13;;;4.37;;
16063;SDS011;8136;53.172;8.256;2023-04-24T23:17:36;18.83;;;3.97;;
16063;SDS011;8136;53.172;8.256;2023-04-24T23:20:05;12.13;;;3.57;;
16063;SDS011;8136;53.172;8.256;2023-04-24T23:22:33;10.37;;;4.37;;
16063;SDS011;8136;53.172;8.256;2023-04-24T23:24:59;19.57;;;3.80;;
16063;SDS011;8136;53.172;8.256;2023-04-24T23:27:26;15.13;;;4.53;;
16063;SDS011;8136;53.172;8.256;2023-04-24T23:29:53;14.60;;;3.50;;
16063;SDS011;8136;53.172;8.256;2023-04-24T23:32:20;12.57;;;4.37;;
16063;SDS011;8136;53.172;8.256;2023-04-24T23:34:46;18.53;;;5.00;;
16063;SDS011;8136;53.172;8.256;2023-04-24T23:37:15;20.63;;;4.17;;
16063;SDS011;8136;53.172;8.256;2023-04-24T23:39:43;16.13;;;4.43;;
16063;SDS011;8136;53.172;8.256;2023-04-24T23:42:10;15.20;;;3.93;;
16063;SDS011;8136;53.172;8.256;2023-04-24T23:44:36;18.53;;;4.37;;
16063;SDS011;8136;53.172;8.256;2023-04-24T23:47:03;15.77;;;4.80;;
16063;SDS011;8136;53.172;8.256;2023-04-24T23:49:30;12.53;;;3.80;;
16063;SDS011;8136;53.172;8.256;2023-04-24T23:51:57;17.87;;;3.93;;
16063;SDS011;8136;53.172;8.256;2023-04-24T23:54:25;21.33;;;3.77;;
16063;SDS011;8136;53.172;8.256;2023-04-24T23:56:52;15.53;;;4.40;;
16063;SDS011;8136;53.172;8.256;2023-04-24T23:59:18;15.17;;;3.50;;
